Time;durP1;ratioP1;P1;durP2;ratioP2;P2;SDS_P1;SDS_P2;PMS_P1;PMS_P2;Temp;Humidity;BMP_temperature;BMP_pressure;BME280_temperature;BME280_humidity;BME280_pressure;Samples;Min_cycle;Max_cycle;Signal;HPM_P1;HPM_P2
2021/09/17 00:01:38;;;;;;;;;;;;;;;;;;5080827;28;19905;-76
2021/09/17 00:04:03;;;;;;;;;;;;;;;;;;5082732;28;19970;-76
2021/09/17 00:06:28;;;;;;;;;;;;;;;;;;5083252;28;20357;-76
2021/09/17 00:08:54;;;;;;;;;;;;;;;;;;5085016;28;19916;-76
2021/09/17 00:11:19;;;;;;;;;;;;;;;;;;5083748;28;19977;-76
2021/09/17 00:13:44;;;;;;;;;;;;;;;;;;5086544;28;19896;-76
2021/09/17 00:16:09;;;;;;;;;;;;;;;;;;5090909;28;19986;-76
2021/09/17 00:18:35;;;;;;;;;;;;;;;;;;5085956;28;19901;-76
2021/09/17 00:21:00;;;;;;;;;;;;;;;;;;5086700;28;19900;-76
2021/09/17 00:23:25;;;;;;;;;;;;;;;;;;5085140;28;19896;-76
2021/09/17 00:25:50;;;;;;;;;;;;;;;;;;5085092;28;19904;-76
2021/09/17 00:28:15;;;;;;;;;;;;;;;;;;5085724;28;19909;-76
2021/09/17 00:30:43;;;;;;;;;;;;;;;;;;5083921;28;19983;-76
2021/09/17 00:33:08;;;;;;;;;;;;;;;;;;5091725;28;19963;-76
2021/09/17 00:35:34;;;;;;;;;;;;;;;;;;5085405;28;19904;-76
2021/09/17 00:38:01;;;;;;;;;;;;;;;;;;5086208;28;19960;-76
2021/09/17 00:40:26;;;;;;;;;;;;;;;;;;5085217;28;19908;-76
2021/09/17 00:42:51;;;;;;;;;;;;;;;;;;5083761;28;19927;-76
2021/09/17 00:45:16;;;;;;;;;;;;;;;;;;5085353;28;19905;-76
2021/09/17 00:47:42;;;;;;;;;;;;;;;;;;5086588;28;19939;-76
2021/09/17 00:50:07;;;;;;;;;;;;;;;;;;5085613;28;19901;-75
2021/09/17 00:52:33;;;;;;;;;;;;;;;;;;5084951;28;19908;-75
2021/09/17 00:54:58;;;;;;;;;;;;;;;;;;5086468;28;19922;-76
2021/09/17 00:57:23;;;;;;;;;;;;;;;;;;5085593;28;19901;-76
2021/09/17 00:59:48;;;;;;;;;;;;;;;;;;5086380;28;19908;-76
2021/09/17 01:02:14;;;;;;;;;;;;;;;;;;5085079;28;19929;-76
2021/09/17 01:04:39;;;;;;;;;;;;;;;;;;5086729;28;19901;-76
2021/09/17 01:07:04;;;;;;;;;;;;;;;;;;5066965;28;19901;-76
2021/09/17 01:09:29;;;;;;;;;;;;;;;;;;5083372;28;19911;-76
2021/09/17 01:12:03;;;;;;;;;;;;;;;;;;5082650;28;20081;-76
2021/09/17 01:14:28;;;;;;;;;;;;;;;;;;5085814;28;19908;-76
2021/09/17 01:16:53;;;;;;;;;;;;;;;;;;5084187;28;19968;-76
2021/09/17 01:19:18;;;;;;;;;;;;;;;;;;5085475;28;19912;-76
2021/09/17 01:21:43;;;;;;;;;;;;;;;;;;5083301;28;19947;-76
2021/09/17 01:24:09;;;;;;;;;;;;;;;;;;5086998;28;19912;-76
2021/09/17 01:26:34;;;;;;;;;;;;;;;;;;5085783;28;19901;-76
2021/09/17 01:28:59;;;;;;;;;;;;;;;;;;5083844;28;19911;-76
2021/09/17 01:31:24;;;;;;;;;;;;;;;;;;5085693;28;19916;-76
2021/09/17 01:33:50;;;;;;;;;;;;;;;;;;5083317;28;19900;-76
2021/09/17 01:36:17;;;;;;;;;;;;;;;;;;5085084;28;19900;-76
2021/09/17 01:38:43;;;;;;;;;;;;;;;;;;5080481;28;19920;-76
2021/09/17 01:41:08;;;;;;;;;;;;;;;;;;5091749;28;19903;-76
2021/09/17 01:43:33;;;;;;;;;;;;;;;;;;5085636;28;19909;-76
2021/09/17 01:45:58;;;;;;;;;;;;;;;;;;5084799;28;19940;-76
2021/09/17 01:48:23;;;;;;;;;;;;;;;;;;5082408;28;19900;-76
2021/09/17 01:50:49;;;;;;;;;;;;;;;;;;5084157;28;19919;-76
2021/09/17 01:53:14;;;;;;;;;;;;;;;;;;5080988;28;19908;-76
2021/09/17 01:55:39;;;;;;;;;;;;;;;;;;5084507;28;19908;-76
2021/09/17 01:58:07;;;;;;;;;;;;;;;;;;5085342;28;19935;-76
2021/09/17 02:00:32;;;;;;;;;;;;;;;;;;5079854;28;19905;-76
2021/09/17 02:02:57;;;;;;;;;;;;;;;;;;5083733;28;19976;-76
2021/09/17 02:05:22;;;;;;;;;;;;;;;;;;5083506;28;19908;-76
2021/09/17 02:07:48;;;;;;;;;;;;;;;;;;5083388;28;19926;-76
2021/09/17 02:10:13;;;;;;;;;;;;;;;;;;5084357;28;19901;-76
2021/09/17 02:12:38;;;;;;;;;;;;;;;;;;5080366;28;20264;-76
2021/09/17 02:15:03;;;;;;;;;;;;;;;;;;5082715;28;19916;-76
2021/09/17 02:17:31;;;;;;;;;;;;;;;;;;5083530;28;19911;-76
2021/09/17 02:19:56;;;;;;;;;;;;;;;;;;5089687;28;19901;-76
2021/09/17 02:22:21;;;;;;;;;;;;;;;;;;5082641;28;19935;-76
2021/09/17 02:24:47;;;;;;;;;;;;;;;;;;5083456;28;19901;-76
2021/09/17 02:27:12;;;;;;;;;;;;;;;;;;5081630;28;19908;-76
2021/09/17 02:29:37;;;;;;;;;;;;;;;;;;5084123;28;19907;-76
2021/09/17 02:32:02;;;;;;;;;;;;;;;;;;5084888;28;19920;-76
2021/09/17 02:34:27;;;;;;;;;;;;;;;;;;5082885;28;19900;-76
2021/09/17 02:36:53;;;;;;;;;;;;;;;;;;5081803;28;20012;-76
2021/09/17 02:39:18;;;;;;;;;;;;;;;;;;5081139;28;19909;-76
2021/09/17 02:41:43;;;;;;;;;;;;;;;;;;5083107;28;19925;-76
2021/09/17 02:44:08;;;;;;;;;;;;;;;;;;5080843;28;19943;-76
2021/09/17 02:46:33;;;;;;;;;;;;;;;;;;5085567;28;19903;-76
2021/09/17 02:48:59;;;;;;;;;;;;;;;;;;5082930;28;19942;-75
2021/09/17 02:51:24;;;;;;;;;;;;;;;;;;5082507;28;19917;-76
2021/09/17 02:53:49;;;;;;;;;;;;;;;;;;5081546;28;19897;-76
2021/09/17 02:56:14;;;;;;;;;;;;;;;;;;5082652;28;19984;-76
2021/09/17 02:58:40;;;;;;;;;;;;;;;;;;5081501;28;19901;-76
2021/09/17 03:01:08;;;;;;;;;;;;;;;;;;5081995;28;19901;-76
2021/09/17 03:03:33;;;;;;;;;;;;;;;;;;5083431;28;19919;-76
2021/09/17 03:06:00;;;;;;;;;;;;;;;;;;5084266;28;19953;-76
2021/09/17 03:08:26;;;;;;;;;;;;;;;;;;5081634;28;19943;-76
2021/09/17 03:10:57;;;;;;;;;;;;;;;;;;5082817;28;19905;-76
2021/09/17 03:13:22;;;;;;;;;;;;;;;;;;5084726;28;19916;-76
2021/09/17 03:15:47;;;;;;;;;;;;;;;;;;5079628;28;19909;-76
2021/09/17 03:18:15;;;;;;;;;;;;;;;;;;5081894;28;19909;-76
2021/09/17 03:20:41;;;;;;;;;;;;;;;;;;5083253;28;19908;-76
2021/09/17 03:23:07;;;;;;;;;;;;;;;;;;5081565;28;19901;-76
2021/09/17 03:25:32;;;;;;;;;;;;;;;;;;5084548;28;20160;-76
2021/09/17 03:27:57;;;;;;;;;;;;;;;;;;5083504;28;20051;-76
2021/09/17 03:30:22;;;;;;;;;;;;;;;;;;5082620;28;19956;-76
2021/09/17 03:32:47;;;;;;;;;;;;;;;;;;5084344;28;19905;-76
2021/09/17 03:35:13;;;;;;;;;;;;;;;;;;5079936;28;19933;-76
2021/09/17 03:37:38;;;;;;;;;;;;;;;;;;5079655;28;20086;-76
2021/09/17 03:40:03;;;;;;;;;;;;;;;;;;5085895;28;19966;-76
2021/09/17 03:42:31;;;;;;;;;;;;;;;;;;5079663;28;20201;-75
2021/09/17 03:44:56;;;;;;;;;;;;;;;;;;5083835;28;19905;-76
2021/09/17 03:47:21;;;;;;;;;;;;;;;;;;5081005;28;19901;-76
2021/09/17 03:49:46;;;;;;;;;;;;;;;;;;5084133;28;19900;-76
2021/09/17 03:52:12;;;;;;;;;;;;;;;;;;5082539;28;19916;-76
2021/09/17 03:54:37;;;;;;;;;;;;;;;;;;5082720;28;19916;-76
2021/09/17 03:57:02;;;;;;;;;;;;;;;;;;5080099;28;19921;-75
2021/09/17 03:59:27;;;;;;;;;;;;;;;;;;5081098;28;19911;-76
2021/09/17 04:01:53;;;;;;;;;;;;;;;;;;5083718;28;20047;-76
2021/09/17 04:04:18;;;;;;;;;;;;;;;;;;5081589;28;19919;-76
2021/09/17 04:06:43;;;;;;;;;;;;;;;;;;5080233;28;19909;-76
2021/09/17 04:09:09;;;;;;;;;;;;;;;;;;5081715;28;19911;-76
2021/09/17 04:11:34;;;;;;;;;;;;;;;;;;5080859;28;19909;-75
2021/09/17 04:13:59;;;;;;;;;;;;;;;;;;5083661;28;19927;-76
2021/09/17 04:16:24;;;;;;;;;;;;;;;;;;5085207;28;19908;-75
2021/09/17 04:18:49;;;;;;;;;;;;;;;;;;5085536;28;19936;-76
2021/09/17 04:21:15;;;;;;;;;;;;;;;;;;5087841;28;19901;-75
2021/09/17 04:23:40;;;;;;;;;;;;;;;;;;5085923;28;19908;-75
2021/09/17 04:26:05;;;;;;;;;;;;;;;;;;5086737;28;19901;-76
2021/09/17 04:28:30;;;;;;;;;;;;;;;;;;5085432;28;19959;-76
2021/09/17 04:30:55;;;;;;;;;;;;;;;;;;5084465;28;19896;-76
2021/09/17 04:33:21;;;;;;;;;;;;;;;;;;5085782;28;19908;-76
2021/09/17 04:35:48;;;;;;;;;;;;;;;;;;5086480;28;19908;-76
2021/09/17 04:38:16;;;;;;;;;;;;;;;;;;5082523;28;20143;-76
2021/09/17 04:40:41;;;;;;;;;;;;;;;;;;5089250;28;19915;-76
2021/09/17 04:43:09;;;;;;;;;;;;;;;;;;5085227;28;19968;-76
2021/09/17 04:45:35;;;;;;;;;;;;;;;;;;5084379;28;19908;-75
2021/09/17 04:48:00;;;;;;;;;;;;;;;;;;5083476;28;19912;-76
2021/09/17 04:50:25;;;;;;;;;;;;;;;;;;5084950;28;20230;-75
2021/09/17 04:52:51;;;;;;;;;;;;;;;;;;5086245;28;19916;-76
2021/09/17 04:55:17;;;;;;;;;;;;;;;;;;5081466;28;19959;-76
2021/09/17 04:57:42;;;;;;;;;;;;;;;;;;5085127;28;19896;-76
2021/09/17 05:00:07;;;;;;;;;;;;;;;;;;5083320;28;19923;-76
2021/09/17 05:02:33;;;;;;;;;;;;;;;;;;5086011;28;19909;-76
2021/09/17 05:04:58;;;;;;;;;;;;;;;;;;5082758;28;19896;-76
2021/09/17 05:07:23;;;;;;;;;;;;;;;;;;5083881;28;19905;-76
2021/09/17 05:09:48;;;;;;;;;;;;;;;;;;5082240;28;19960;-76
2021/09/17 05:12:13;;;;;;;;;;;;;;;;;;5082997;28;19930;-76
2021/09/17 05:14:39;;;;;;;;;;;;;;;;;;5086551;28;19909;-77
2021/09/17 05:17:04;;;;;;;;;;;;;;;;;;5084705;28;19900;-76
2021/09/17 05:19:29;;;;;;;;;;;;;;;;;;5082383;28;19900;-76
2021/09/17 05:21:54;;;;;;;;;;;;;;;;;;5087169;28;19941;-76
2021/09/17 05:24:20;;;;;;;;;;;;;;;;;;5086791;28;19917;-76
2021/09/17 05:26:45;;;;;;;;;;;;;;;;;;5082062;28;19901;-76
2021/09/17 05:29:10;;;;;;;;;;;;;;;;;;5083479;28;19901;-76
2021/09/17 05:31:35;;;;;;;;;;;;;;;;;;5081833;28;19923;-76
2021/09/17 05:34:00;;;;;;;;;;;;;;;;;;5085925;28;19897;-76
2021/09/17 05:36:26;;;;;;;;;;;;;;;;;;5083264;28;19900;-76
2021/09/17 05:38:51;;;;;;;;;;;;;;;;;;5083746;28;19936;-75
2021/09/17 05:41:16;;;;;;;;;;;;;;;;;;5080363;28;19903;-76
2021/09/17 05:43:41;;;;;;;;;;;;;;;;;;5081486;28;19929;-76
2021/09/17 05:46:07;;;;;;;;;;;;;;;;;;5084798;28;19932;-76
2021/09/17 05:48:32;;;;;;;;;;;;;;;;;;5084518;28;19900;-76
2021/09/17 05:50:57;;;;;;;;;;;;;;;;;;5084291;28;20223;-75
2021/09/17 05:53:22;;;;;;;;;;;;;;;;;;5082242;28;20028;-76
2021/09/17 05:55:47;;;;;;;;;;;;;;;;;;5083421;28;20237;-76
2021/09/17 05:58:13;;;;;;;;;;;;;;;;;;5083452;28;19904;-76
2021/09/17 06:00:38;;;;;;;;;;;;;;;;;;5084599;28;19909;-76
2021/09/17 06:03:03;;;;;;;;;;;;;;;;;;5083036;28;19917;-76
2021/09/17 06:05:28;;;;;;;;;;;;;;;;;;5083326;28;19901;-75
2021/09/17 06:07:56;;;;;;;;;;;;;;;;;;5084739;28;20016;-76
2021/09/17 06:10:23;;;;;;;;;;;;;;;;;;5082486;28;19900;-76
2021/09/17 06:12:49;;;;;;;;;;;;;;;;;;5082196;28;20000;-76
2021/09/17 06:15:16;;;;;;;;;;;;;;;;;;5084437;28;19904;-76
2021/09/17 06:17:41;;;;;;;;;;;;;;;;;;5084826;28;19968;-76
2021/09/17 06:20:06;;;;;;;;;;;;;;;;;;5080460;28;19897;-76
2021/09/17 06:22:31;;;;;;;;;;;;;;;;;;5083875;28;19912;-76
2021/09/17 06:24:57;;;;;;;;;;;;;;;;;;5085527;28;19909;-76
2021/09/17 06:27:22;;;;;;;;;;;;;;;;;;5084645;28;19911;-76
2021/09/17 06:29:47;;;;;;;;;;;;;;;;;;5079713;28;19897;-76
2021/09/17 06:32:12;;;;;;;;;;;;;;;;;;5088833;28;20137;-76
2021/09/17 06:34:38;;;;;;;;;;;;;;;;;;5081776;28;19935;-76
2021/09/17 06:37:03;;;;;;;;;;;;;;;;;;5083790;28;19909;-76
2021/09/17 06:39:28;;;;;;;;;;;;;;;;;;5089646;28;19968;-76
2021/09/17 06:41:53;;;;;;;;;;;;;;;;;;5086412;28;19931;-76
2021/09/17 06:44:26;;;;;;;;;;;;;;;;;;5083034;28;19909;-76
2021/09/17 06:46:51;;;;;;;;;;;;;;;;;;5082980;28;19993;-76
2021/09/17 06:49:17;;;;;;;;;;;;;;;;;;5082114;28;19932;-75
2021/09/17 06:51:42;;;;;;;;;;;;;;;;;;5088818;28;19917;-76
2021/09/17 06:54:07;;;;;;;;;;;;;;;;;;5082001;28;19912;-76
2021/09/17 06:56:32;;;;;;;;;;;;;;;;;;5082734;28;19947;-75
2021/09/17 06:58:58;;;;;;;;;;;;;;;;;;5097425;28;19900;-75
2021/09/17 07:01:25;;;;;;;;;;;;;;;;;;5083524;28;19946;-76
2021/09/17 07:03:50;;;;;;;;;;;;;;;;;;5083542;28;19927;-76
2021/09/17 07:06:15;;;;;;;;;;;;;;;;;;5082789;28;19924;-76
2021/09/17 07:08:41;;;;;;;;;;;;;;;;;;5082623;28;19908;-76
2021/09/17 07:11:06;;;;;;;;;;;;;;;;;;5091206;28;19901;-75
2021/09/17 07:13:31;;;;;;;;;;;;;;;;;;5082777;28;19954;-76
2021/09/17 07:15:56;;;;;;;;;;;;;;;;;;5087407;28;19903;-76
2021/09/17 07:18:21;;;;;;;;;;;;;;;;;;5092021;28;19905;-77
2021/09/17 07:20:47;;;;;;;;;;;;;;;;;;5084042;28;19901;-76
2021/09/17 07:23:13;;;;;;;;;;;;;;;;;;5082178;28;19959;-74
2021/09/17 07:25:38;;;;;;;;;;;;;;;;;;5081895;28;19909;-74
2021/09/17 07:28:03;;;;;;;;;;;;;;;;;;5083462;28;20115;-74
2021/09/17 07:30:31;;;;;;;;;;;;;;;;;;5081561;28;19897;-74
2021/09/17 07:32:56;;;;;;;;;;;;;;;;;;5080895;28;19908;-74
2021/09/17 07:35:22;;;;;;;;;;;;;;;;;;5082053;28;19912;-74
2021/09/17 07:37:47;;;;;;;;;;;;;;;;;;5082321;28;19908;-74
2021/09/17 07:40:14;;;;;;;;;;;;;;;;;;5082827;28;19900;-74
2021/09/17 07:42:41;;;;;;;;;;;;;;;;;;5081921;28;19916;-74
2021/09/17 07:45:06;;;;;;;;;;;;;;;;;;5080406;28;19900;-74
2021/09/17 07:47:32;;;;;;;;;;;;;;;;;;5082501;28;19954;-74
2021/09/17 07:49:57;;;;;;;;;;;;;;;;;;5080509;28;20118;-74
2021/09/17 07:52:23;;;;;;;;;;;;;;;;;;5087621;28;19984;-74
2021/09/17 07:54:48;;;;;;;;;;;;;;;;;;5087490;28;19968;-74
2021/09/17 07:57:16;;;;;;;;;;;;;;;;;;5088755;28;19908;-75
2021/09/17 07:59:41;;;;;;;;;;;;;;;;;;5084639;28;19905;-75
2021/09/17 08:02:06;;;;;;;;;;;;;;;;;;5085490;28;19927;-75
2021/09/17 08:04:32;;;;;;;;;;;;;;;;;;5085368;28;19908;-76
2021/09/17 08:06:57;;;;;;;;;;;;;;;;;;5087116;28;19991;-75
2021/09/17 08:09:22;;;;;;;;;;;;;;;;;;5072763;28;19909;-77
2021/09/17 08:11:47;;;;;;;;;;;;;;;;;;5085991;28;20093;-77
2021/09/17 08:14:12;;;;;;;;;;;;;;;;;;5083430;28;20019;-74
2021/09/17 08:16:38;;;;;;;;;;;;;;;;;;5087286;28;19903;-75
2021/09/17 08:19:03;;;;;;;;;;;;;;;;;;5086352;28;19916;-76
2021/09/17 08:21:29;;;;;;;;;;;;;;;;;;5081895;28;19927;-75
2021/09/17 08:23:54;;;;;;;;;;;;;;;;;;5083629;28;19963;-75
2021/09/17 08:26:19;;;;;;;;;;;;;;;;;;5083189;28;19901;-75
2021/09/17 08:28:44;;;;;;;;;;;;;;;;;;5085388;28;19901;-75
2021/09/17 08:31:11;;;;;;;;;;;;;;;;;;5082638;28;19987;-74
2021/09/17 08:33:38;;;;;;;;;;;;;;;;;;5082816;28;19917;-78
2021/09/17 08:36:03;;;;;;;;;;;;;;;;;;5085764;28;19976;-78
2021/09/17 08:38:29;;;;;;;;;;;;;;;;;;5085673;28;19909;-78
2021/09/17 08:40:56;;;;;;;;;;;;;;;;;;5090223;28;20043;-77
2021/09/17 08:43:22;;;;;;;;;;;;;;;;;;5085265;28;19915;-78
2021/09/17 08:45:50;;;;;;;;;;;;;;;;;;5089469;28;19901;-76
2021/09/17 08:48:21;;;;;;;;;;;;;;;;;;5084235;28;19907;-76
2021/09/17 08:50:48;;;;;;;;;;;;;;;;;;5085788;28;19912;-75
2021/09/17 08:53:15;;;;;;;;;;;;;;;;;;5114231;28;19908;-75
2021/09/17 08:55:41;;;;;;;;;;;;;;;;;;5085559;28;19901;-76
2021/09/17 08:58:06;;;;;;;;;;;;;;;;;;5082274;28;19924;-75
2021/09/17 09:00:31;;;;;;;;;;;;;;;;;;5084774;28;19901;-73
2021/09/17 09:02:57;;;;;;;;;;;;;;;;;;5083715;28;19909;-72
2021/09/17 09:05:22;;;;;;;;;;;;;;;;;;5083434;28;19905;-74
2021/09/17 09:07:49;;;;;;;;;;;;;;;;;;5083966;28;19977;-74
2021/09/17 09:10:14;;;;;;;;;;;;;;;;;;5082660;28;19923;-73
2021/09/17 09:12:39;;;;;;;;;;;;;;;;;;5081394;28;19913;-74
2021/09/17 09:15:05;;;;;;;;;;;;;;;;;;5085171;28;19912;-74
2021/09/17 09:17:30;;;;;;;;;;;;;;;;;;5084533;28;19911;-74
2021/09/17 09:19:55;;;;;;;;;;;;;;;;;;5083022;28;19912;-74
2021/09/17 09:22:20;;;;;;;;;;;;;;;;;;5082012;28;19939;-74
2021/09/17 09:24:46;;;;;;;;;;;;;;;;;;5085189;28;19935;-73
2021/09/17 09:27:11;;;;;;;;;;;;;;;;;;5084411;28;19901;-75
2021/09/17 09:29:36;;;;;;;;;;;;;;;;;;5083722;28;19901;-75
2021/09/17 09:32:01;;;;;;;;;;;;;;;;;;5080485;28;19917;-76
2021/09/17 09:34:26;;;;;;;;;;;;;;;;;;5085041;28;19960;-76
2021/09/17 09:36:52;;;;;;;;;;;;;;;;;;5081909;28;19901;-74
2021/09/17 09:39:17;;;;;;;;;;;;;;;;;;5081375;28;19900;-74
2021/09/17 09:41:42;;;;;;;;;;;;;;;;;;5085101;28;19911;-76
2021/09/17 09:44:07;;;;;;;;;;;;;;;;;;5080886;28;19915;-75
2021/09/17 09:46:33;;;;;;;;;;;;;;;;;;5083565;28;19905;-75
2021/09/17 09:48:58;;;;;;;;;;;;;;;;;;5082974;28;19908;-73
2021/09/17 09:51:23;;;;;;;;;;;;;;;;;;5082432;28;19925;-70
2021/09/17 09:53:48;;;;;;;;;;;;;;;;;;5080835;28;20076;-75
2021/09/17 09:56:14;;;;;;;;;;;;;;;;;;5082392;28;19909;-76
2021/09/17 09:58:39;;;;;;;;;;;;;;;;;;5082556;28;19909;-75
2021/09/17 10:01:04;;;;;;;;;;;;;;;;;;5081176;28;19909;-75
2021/09/17 10:03:30;;;;;;;;;;;;;;;;;;5078284;28;19916;-73
2021/09/17 10:05:55;;;;;;;;;;;;;;;;;;5081937;28;19909;-76
2021/09/17 10:08:20;;;;;;;;;;;;;;;;;;5083413;28;19910;-73
2021/09/17 10:10:45;;;;;;;;;;;;;;;;;;5081053;28;19901;-75
2021/09/17 10:13:11;;;;;;;;;;;;;;;;;;5079568;28;19975;-75
2021/09/17 10:15:36;;;;;;;;;;;;;;;;;;5080935;28;19928;-74
2021/09/17 10:18:01;;;;;;;;;;;;;;;;;;5079877;28;19907;-74
2021/09/17 10:20:26;;;;;;;;;;;;;;;;;;5080530;28;19901;-74
2021/09/17 10:22:52;;;;;;;;;;;;;;;;;;5084283;28;19911;-75
2021/09/17 10:25:17;;;;;;;;;;;;;;;;;;5081790;28;19908;-75
2021/09/17 10:27:43;;;;;;;;;;;;;;;;;;5068450;28;20555;-76
2021/09/17 10:30:08;;;;;;;;;;;;;;;;;;5057070;28;20019;-72
2021/09/17 10:32:34;;;;;;;;;;;;;;;;;;5051295;28;19970;-74
2021/09/17 10:35:02;;;;;;;;;;;;;;;;;;5054520;28;20306;-74
2021/09/17 10:37:27;;;;;;;;;;;;;;;;;;5065790;28;20120;-75
2021/09/17 10:39:53;;;;;;;;;;;;;;;;;;5052984;28;19959;-76
2021/09/17 10:42:18;;;;;;;;;;;;;;;;;;5060480;28;19905;-75
2021/09/17 10:44:43;;;;;;;;;;;;;;;;;;5054707;28;19908;-76
2021/09/17 10:47:09;;;;;;;;;;;;;;;;;;5070383;28;19916;-76
2021/09/17 10:49:34;;;;;;;;;;;;;;;;;;5052047;28;20030;-76
2021/09/17 10:51:59;;;;;;;;;;;;;;;;;;5055548;28;19943;-77
2021/09/17 10:54:24;;;;;;;;;;;;;;;;;;5052587;28;19909;-76
2021/09/17 10:56:49;;;;;;;;;;;;;;;;;;5051318;28;19984;-76
2021/09/17 10:59:15;;;;;;;;;;;;;;;;;;5056489;28;20029;-74
2021/09/17 11:01:40;;;;;;;;;;;;;;;;;;5050491;28;19912;-74
2021/09/17 11:04:05;;;;;;;;;;;;;;;;;;5051792;28;20221;-75
2021/09/17 11:06:30;;;;;;;;;;;;;;;;;;5062457;28;20516;-75
2021/09/17 11:08:56;;;;;;;;;;;;;;;;;;5054544;28;19909;-75
2021/09/17 11:11:22;;;;;;;;;;;;;;;;;;5053442;28;19903;-76
2021/09/17 11:13:47;;;;;;;;;;;;;;;;;;5056910;28;20494;-74
2021/09/17 11:16:12;;;;;;;;;;;;;;;;;;5055133;28;20182;-75
2021/09/17 11:18:37;;;;;;;;;;;;;;;;;;5051947;28;19936;-73
2021/09/17 11:21:03;;;;;;;;;;;;;;;;;;5039792;28;19920;-74
2021/09/17 11:23:28;;;;;;;;;;;;;;;;;;5061644;28;19908;-75
2021/09/17 11:25:53;;;;;;;;;;;;;;;;;;5082463;28;19912;-75
2021/09/17 11:28:27;;;;;;;;;;;;;;;;;;5082792;28;20329;-73
2021/09/17 11:30:52;;;;;;;;;;;;;;;;;;5082041;28;20153;-75
2021/09/17 11:33:20;;;;;;;;;;;;;;;;;;5083689;28;19938;-75
2021/09/17 11:35:45;;;;;;;;;;;;;;;;;;5083010;28;19905;-74
2021/09/17 11:38:10;;;;;;;;;;;;;;;;;;5085797;28;19919;-75
2021/09/17 11:40:38;;;;;;;;;;;;;;;;;;5083150;28;19909;-75
2021/09/17 11:43:03;;;;;;;;;;;;;;;;;;5090549;28;19905;-74
2021/09/17 11:45:29;;;;;;;;;;;;;;;;;;5083297;28;19901;-74
2021/09/17 11:47:56;;;;;;;;;;;;;;;;;;5084771;28;19943;-73
2021/09/17 11:50:21;;;;;;;;;;;;;;;;;;5086495;28;20020;-74
2021/09/17 11:52:47;;;;;;;;;;;;;;;;;;5083189;28;19909;-75
2021/09/17 11:55:12;;;;;;;;;;;;;;;;;;5084530;28;19923;-76
2021/09/17 11:57:39;;;;;;;;;;;;;;;;;;5085381;28;20036;-76
2021/09/17 12:00:04;;;;;;;;;;;;;;;;;;5082996;28;19911;-76
2021/09/17 12:02:29;;;;;;;;;;;;;;;;;;5083648;28;19908;-74
2021/09/17 12:04:56;;;;;;;;;;;;;;;;;;5085712;28;19951;-74
2021/09/17 12:07:21;;;;;;;;;;;;;;;;;;5084173;28;19932;-75
2021/09/17 12:09:49;;;;;;;;;;;;;;;;;;5084337;28;19909;-74
2021/09/17 12:12:14;;;;;;;;;;;;;;;;;;5085431;28;19925;-73
2021/09/17 12:14:42;;;;;;;;;;;;;;;;;;5083731;28;19900;-74
2021/09/17 12:17:07;;;;;;;;;;;;;;;;;;5084312;28;19917;-73
2021/09/17 12:19:32;;;;;;;;;;;;;;;;;;5083945;28;19909;-74
2021/09/17 12:21:57;;;;;;;;;;;;;;;;;;5083473;28;19912;-74
2021/09/17 12:24:23;;;;;;;;;;;;;;;;;;5083361;28;19912;-73
2021/09/17 12:26:48;;;;;;;;;;;;;;;;;;5082066;28;20007;-73
2021/09/17 12:29:13;;;;;;;;;;;;;;;;;;5085130;28;20152;-73
2021/09/17 12:31:38;;;;;;;;;;;;;;;;;;5082864;28;19915;-74
2021/09/17 12:34:04;;;;;;;;;;;;;;;;;;5083083;28;19934;-73
2021/09/17 12:36:29;;;;;;;;;;;;;;;;;;5080599;28;19912;-73
2021/09/17 12:38:54;;;;;;;;;;;;;;;;;;5080598;28;19909;-73
2021/09/17 12:41:19;;;;;;;;;;;;;;;;;;5083301;28;20049;-73
2021/09/17 12:43:44;;;;;;;;;;;;;;;;;;5084080;28;19919;-73
2021/09/17 12:46:10;;;;;;;;;;;;;;;;;;5083626;28;19912;-74
2021/09/17 12:48:35;;;;;;;;;;;;;;;;;;5079384;28;19909;-74
2021/09/17 12:51:00;;;;;;;;;;;;;;;;;;5079097;28;19905;-73
2021/09/17 12:53:26;;;;;;;;;;;;;;;;;;5083898;28;19916;-75
2021/09/17 12:55:51;;;;;;;;;;;;;;;;;;5089259;28;19908;-75
2021/09/17 12:58:17;;;;;;;;;;;;;;;;;;5083170;28;19968;-75
2021/09/17 13:00:42;;;;;;;;;;;;;;;;;;5080329;28;19901;-75
2021/09/17 13:03:07;;;;;;;;;;;;;;;;;;5081284;28;19939;-75
2021/09/17 13:05:32;;;;;;;;;;;;;;;;;;5081194;28;19900;-76
2021/09/17 13:07:58;;;;;;;;;;;;;;;;;;5079368;28;19901;-76
2021/09/17 13:10:23;;;;;;;;;;;;;;;;;;5083953;28;19900;-76
2021/09/17 13:12:48;;;;;;;;;;;;;;;;;;5082324;28;19915;-75
2021/09/17 13:15:13;;;;;;;;;;;;;;;;;;5082706;28;20215;-75
2021/09/17 13:17:39;;;;;;;;;;;;;;;;;;5088331;28;19909;-75
2021/09/17 13:20:04;;;;;;;;;;;;;;;;;;5089117;28;19972;-75
2021/09/17 13:22:29;;;;;;;;;;;;;;;;;;5081790;28;19951;-75
2021/09/17 13:24:54;;;;;;;;;;;;;;;;;;5080189;28;19912;-74
2021/09/17 13:27:20;;;;;;;;;;;;;;;;;;5083264;28;19911;-75
2021/09/17 13:29:45;;;;;;;;;;;;;;;;;;5081630;28;19916;-75
2021/09/17 13:32:10;;;;;;;;;;;;;;;;;;5082221;28;19975;-74
2021/09/17 13:34:35;;;;;;;;;;;;;;;;;;5082747;28;19909;-76
2021/09/17 13:37:01;;;;;;;;;;;;;;;;;;5083386;28;19915;-76
2021/09/17 13:39:26;;;;;;;;;;;;;;;;;;5080431;28;20191;-76
2021/09/17 13:41:53;;;;;;;;;;;;;;;;;;5114435;28;19904;-75
2021/09/17 13:44:19;;;;;;;;;;;;;;;;;;5089777;28;19909;-75
2021/09/17 13:46:44;;;;;;;;;;;;;;;;;;5081489;28;19943;-80
2021/09/17 13:49:09;;;;;;;;;;;;;;;;;;5082940;28;19919;-77
2021/09/17 13:51:35;;;;;;;;;;;;;;;;;;5079751;28;19913;-84
2021/09/17 13:54:00;;;;;;;;;;;;;;;;;;5081969;28;19904;-79
2021/09/17 13:56:25;;;;;;;;;;;;;;;;;;5082130;28;19905;-79
2021/09/17 13:58:51;;;;;;;;;;;;;;;;;;5084112;28;19908;-80
2021/09/17 14:01:16;;;;;;;;;;;;;;;;;;5080295;28;19984;-79
2021/09/17 14:03:41;;;;;;;;;;;;;;;;;;5083860;28;19908;-79
2021/09/17 14:06:06;;;;;;;;;;;;;;;;;;5083197;28;19969;-79
2021/09/17 14:08:31;;;;;;;;;;;;;;;;;;5081465;28;19908;-78
2021/09/17 14:10:57;;;;;;;;;;;;;;;;;;5080990;28;19909;-78
2021/09/17 14:13:22;;;;;;;;;;;;;;;;;;5081182;28;20148;-79
2021/09/17 14:15:47;;;;;;;;;;;;;;;;;;5080142;28;19920;-78
2021/09/17 14:18:12;;;;;;;;;;;;;;;;;;5079675;28;19965;-79
2021/09/17 14:20:38;;;;;;;;;;;;;;;;;;5082215;28;19908;-79
2021/09/17 14:23:03;;;;;;;;;;;;;;;;;;5088939;28;19908;-79
2021/09/17 14:25:28;;;;;;;;;;;;;;;;;;5081945;28;19987;-80
2021/09/17 14:27:53;;;;;;;;;;;;;;;;;;5084329;28;19900;-80
2021/09/17 14:30:19;;;;;;;;;;;;;;;;;;5081830;28;19909;-79
2021/09/17 14:32:46;;;;;;;;;;;;;;;;;;5081707;28;19932;-79
2021/09/17 14:35:11;;;;;;;;;;;;;;;;;;5078181;28;19907;-79
2021/09/17 14:37:36;;;;;;;;;;;;;;;;;;5083244;28;19901;-80
2021/09/17 14:40:01;;;;;;;;;;;;;;;;;;5082558;28;19916;-80
2021/09/17 14:42:27;;;;;;;;;;;;;;;;;;5071587;28;19908;-79
2021/09/17 14:44:52;;;;;;;;;;;;;;;;;;5081229;28;19923;-78
2021/09/17 14:47:17;;;;;;;;;;;;;;;;;;5083373;28;19923;-79
2021/09/17 14:49:43;;;;;;;;;;;;;;;;;;5080508;28;19917;-78
2021/09/17 14:52:08;;;;;;;;;;;;;;;;;;5081544;28;19909;-79
2021/09/17 14:54:33;;;;;;;;;;;;;;;;;;5081306;28;19912;-79
2021/09/17 14:56:58;;;;;;;;;;;;;;;;;;5082084;28;19900;-78
2021/09/17 14:59:24;;;;;;;;;;;;;;;;;;5080037;28;19907;-78
2021/09/17 15:01:49;;;;;;;;;;;;;;;;;;5081159;28;19912;-78
2021/09/17 15:04:14;;;;;;;;;;;;;;;;;;5080174;28;19912;-78
2021/09/17 15:06:39;;;;;;;;;;;;;;;;;;5112201;28;19909;-77
2021/09/17 15:09:05;;;;;;;;;;;;;;;;;;5080298;28;19920;-79
2021/09/17 15:11:30;;;;;;;;;;;;;;;;;;5078682;28;19901;-77
2021/09/17 15:13:55;;;;;;;;;;;;;;;;;;5071602;28;19901;-78
2021/09/17 15:16:22;;;;;;;;;;;;;;;;;;5083319;28;20165;-79
2021/09/17 15:18:47;;;;;;;;;;;;;;;;;;5082230;28;19900;-79
2021/09/17 15:21:13;;;;;;;;;;;;;;;;;;5080607;28;19931;-79
2021/09/17 15:23:38;;;;;;;;;;;;;;;;;;5081484;28;19900;-78
2021/09/17 15:26:03;;;;;;;;;;;;;;;;;;5082694;28;19905;-79
2021/09/17 15:28:31;;;;;;;;;;;;;;;;;;5080714;28;19959;-79
2021/09/17 15:31:00;;;;;;;;;;;;;;;;;;5080654;28;19901;-78
2021/09/17 15:33:25;;;;;;;;;;;;;;;;;;5081205;28;19924;-78
2021/09/17 15:35:50;;;;;;;;;;;;;;;;;;5082298;28;19966;-78
2021/09/17 15:38:15;;;;;;;;;;;;;;;;;;5081386;28;19975;-78
2021/09/17 15:40:41;;;;;;;;;;;;;;;;;;5081586;28;19901;-78
2021/09/17 15:43:06;;;;;;;;;;;;;;;;;;5079420;28;19905;-78
2021/09/17 15:45:31;;;;;;;;;;;;;;;;;;5077551;28;19908;-79
2021/09/17 15:47:56;;;;;;;;;;;;;;;;;;5080682;28;19905;-78
2021/09/17 15:50:22;;;;;;;;;;;;;;;;;;5079097;28;19928;-77
2021/09/17 15:52:47;;;;;;;;;;;;;;;;;;5078786;28;19915;-79
2021/09/17 15:55:12;;;;;;;;;;;;;;;;;;5082686;28;19992;-78
2021/09/17 15:57:37;;;;;;;;;;;;;;;;;;5079525;28;19901;-79
2021/09/17 16:00:03;;;;;;;;;;;;;;;;;;5079223;28;19901;-78
2021/09/17 16:02:35;;;;;;;;;;;;;;;;;;5080400;28;19911;-79
2021/09/17 16:05:00;;;;;;;;;;;;;;;;;;5081128;28;19943;-78
2021/09/17 16:07:25;;;;;;;;;;;;;;;;;;5079583;28;19917;-79
2021/09/17 16:09:50;;;;;;;;;;;;;;;;;;5081830;28;19901;-78
2021/09/17 16:12:18;;;;;;;;;;;;;;;;;;5082422;28;19919;-79
2021/09/17 16:14:43;;;;;;;;;;;;;;;;;;5083791;28;19904;-77
2021/09/17 16:17:08;;;;;;;;;;;;;;;;;;5082042;28;19935;-79
2021/09/17 16:19:34;;;;;;;;;;;;;;;;;;5082463;28;19901;-79
2021/09/17 16:22:00;;;;;;;;;;;;;;;;;;5082402;28;19940;-78
2021/09/17 16:24:25;;;;;;;;;;;;;;;;;;5081137;28;20275;-78
2021/09/17 16:26:51;;;;;;;;;;;;;;;;;;5083992;28;19932;-78
2021/09/17 16:29:19;;;;;;;;;;;;;;;;;;5084841;28;19909;-77
2021/09/17 16:31:48;;;;;;;;;;;;;;;;;;5084326;28;19917;-76
2021/09/17 16:34:14;;;;;;;;;;;;;;;;;;5085297;28;19909;-77